Time;durP1;ratioP1;P1;durP2;ratioP2;P2;SDS_P1;SDS_P2;PMS_P1;PMS_P2;Temp;Humidity;BMP_temperature;BMP_pressure;BME280_temperature;BME280_humidity;BME280_pressure;Samples;Min_cycle;Max_cycle;Signal;HPM_P1;HPM_P2
2024/01/06 00:01:16;;;;;;;;;14.25;11.75;;;;;7.42;70.26;100206.03;5034469;28;55370;-69
2024/01/06 00:03:42;;;;;;;;;23.25;18.00;;;;;7.41;70.28;100212.13;5032949;28;70081;-69
2024/01/06 00:06:07;;;;;;;;;21.00;15.00;;;;;7.39;70.41;100212.16;5013090;28;47458;-70
2024/01/06 00:08:32;;;;;;;;;18.25;14.00;;;;;7.40;70.37;100210.38;5035762;28;45499;-69
2024/01/06 00:10:58;;;;;;;;;19.50;15.00;;;;;7.44;70.73;100204.25;5034760;28;55516;-69
2024/01/06 00:13:23;;;;;;;;;20.25;14.75;;;;;7.46;70.53;100212.03;5028420;28;45438;-68
2024/01/06 00:15:48;;;;;;;;;19.75;15.00;;;;;7.50;70.79;100217.09;5029139;28;54555;-68
2024/01/06 00:18:14;;;;;;;;;21.00;17.75;;;;;7.52;70.71;100207.50;5026810;28;45780;-69
2024/01/06 00:20:39;;;;;;;;;15.00;14.00;;;;;7.58;70.79;100217.81;5014940;28;45849;-69
2024/01/06 00:23:04;;;;;;;;;19.25;15.00;;;;;7.65;70.34;100215.03;5007627;28;45489;-69
2024/01/06 00:25:30;;;;;;;;;15.50;11.50;;;;;7.69;70.38;100214.09;5027608;28;75456;-70
2024/01/06 00:27:55;;;;;;;;;15.25;15.00;;;;;7.70;70.27;100213.19;5036006;28;45239;-70
2024/01/06 00:30:20;;;;;;;;;22.75;15.75;;;;;7.68;70.27;100213.22;5016437;28;50853;-70
2024/01/06 00:32:46;;;;;;;;;17.50;16.25;;;;;7.69;70.30;100211.50;5030391;28;63999;-71
2024/01/06 00:35:11;;;;;;;;;18.75;14.50;;;;;7.71;70.27;100207.94;5019415;28;60085;-69
2024/01/06 00:37:36;;;;;;;;;17.25;14.75;;;;;7.77;70.24;100217.34;5035262;28;67290;-71
2024/01/06 00:40:02;;;;;;;;;20.50;16.50;;;;;7.80;70.40;100215.53;5034756;28;63158;-69
2024/01/06 00:42:27;;;;;;;;;20.00;12.25;;;;;7.84;70.10;100221.53;5032524;28;45657;-70
2024/01/06 00:44:53;;;;;;;;;18.50;12.50;;;;;7.88;70.07;100222.31;5027272;28;75455;-70
2024/01/06 00:47:18;;;;;;;;;19.50;14.50;;;;;7.86;69.87;100219.75;5018464;28;73388;-69
2024/01/06 00:49:43;;;;;;;;;15.50;12.00;;;;;7.86;69.96;100217.16;5032858;28;45506;-71
2024/01/06 00:52:09;;;;;;;;;18.00;14.50;;;;;7.87;69.84;100228.44;5012792;28;45432;-70
2024/01/06 00:54:34;;;;;;;;;19.75;15.75;;;;;7.84;69.78;100226.72;5024051;28;59704;-70
2024/01/06 00:56:59;;;;;;;;;12.25;11.00;;;;;7.83;69.88;100229.41;5027140;28;73053;-69
2024/01/06 00:59:25;;;;;;;;;22.75;15.75;;;;;7.84;70.06;100234.53;5020631;28;45500;-71
2024/01/06 01:01:50;;;;;;;;;16.75;16.00;;;;;7.81;69.98;100232.03;4998432;28;45416;-70
2024/01/06 01:04:16;;;;;;;;;16.50;13.25;;;;;7.80;69.96;100235.53;5032293;28;47447;-70
2024/01/06 01:06:41;;;;;;;;;21.25;15.50;;;;;7.77;69.98;100241.69;5035030;28;45246;-71
2024/01/06 01:09:06;;;;;;;;;18.25;17.25;;;;;7.76;69.94;100241.72;5018941;28;56732;-71
2024/01/06 01:11:32;;;;;;;;;14.50;10.25;;;;;7.74;70.26;100246.94;5037243;28;45511;-70
2024/01/06 01:13:57;;;;;;;;;15.00;14.75;;;;;7.71;70.12;100247.00;5015709;28;45480;-70
2024/01/06 01:16:22;;;;;;;;;18.00;16.25;;;;;7.71;70.29;100246.16;5035297;28;45364;-71
2024/01/06 01:18:48;;;;;;;;;12.00;11.00;;;;;7.69;70.24;100247.94;5034087;28;45412;-70
2024/01/06 01:21:14;;;;;;;;;17.75;10.50;;;;;7.70;70.04;100252.25;5035649;28;46096;-70
2024/01/06 01:23:40;;;;;;;;;15.50;10.00;;;;;7.67;69.97;100249.75;5037767;28;45578;-70
2024/01/06 01:26:05;;;;;;;;;19.25;13.25;;;;;7.65;70.35;100254.09;5008788;28;74896;-70
2024/01/06 01:28:30;;;;;;;;;18.00;13.50;;;;;7.63;70.11;100251.53;5029289;28;60603;-71
2024/01/06 01:30:56;;;;;;;;;17.00;14.00;;;;;7.61;70.20;100255.91;5015157;28;45409;-71
2024/01/06 01:33:21;;;;;;;;;21.25;15.50;;;;;7.59;70.24;100257.69;5038613;28;46433;-70
2024/01/06 01:35:46;;;;;;;;;13.25;8.00;;;;;7.57;70.32;100256.88;5039395;28;45245;-70
2024/01/06 01:38:12;;;;;;;;;16.00;12.00;;;;;7.55;70.19;100259.53;5039549;28;52788;-71
2024/01/06 01:40:38;;;;;;;;;15.50;10.00;;;;;7.52;70.43;100262.19;5034697;28;45480;-71
2024/01/06 01:43:03;;;;;;;;;15.00;11.75;;;;;7.48;70.47;100263.16;5022110;28;46202;-71
2024/01/06 01:45:29;;;;;;;;;20.50;14.25;;;;;7.47;70.43;100271.88;5031835;28;71677;-71
2024/01/06 01:47:54;;;;;;;;;14.75;11.00;;;;;7.43;70.43;100269.34;5027474;28;64295;-69
2024/01/06 01:50:22;;;;;;;;;13.50;12.75;;;;;7.40;70.31;100270.25;5029816;28;73122;-70
2024/01/06 01:52:47;;;;;;;;;14.75;10.75;;;;;7.39;70.42;100276.38;5039207;28;45446;-69
2024/01/06 01:55:13;;;;;;;;;12.25;10.00;;;;;7.34;70.39;100275.63;5017234;28;45348;-69
2024/01/06 01:57:38;;;;;;;;;13.50;11.25;;;;;7.29;70.56;100273.09;5017834;28;45480;-70
2024/01/06 02:00:04;;;;;;;;;14.00;12.00;;;;;7.29;70.73;100274.84;5020595;28;67230;-70
2024/01/06 02:02:30;;;;;;;;;15.50;13.50;;;;;7.27;70.90;100277.47;5027527;28;46617;-70
2024/01/06 02:04:56;;;;;;;;;16.00;11.50;;;;;7.31;70.93;100278.28;5015576;28;45337;-70
2024/01/06 02:07:21;;;;;;;;;16.75;11.00;;;;;7.31;70.78;100279.16;5020607;28;45263;-71
2024/01/06 02:09:46;;;;;;;;;18.50;10.50;;;;;7.30;70.78;100284.38;5035296;28;72990;-70
2024/01/06 02:12:12;;;;;;;;;23.00;16.25;;;;;7.28;70.94;100279.22;5035700;28;61436;-70
2024/01/06 02:14:37;;;;;;;;;13.75;10.75;;;;;7.31;71.05;100286.06;5022150;28;45815;-70
2024/01/06 02:17:03;;;;;;;;;15.75;14.25;;;;;7.29;71.01;100285.25;5021586;28;61591;-71
2024/01/06 02:19:28;;;;;;;;;16.75;14.25;;;;;7.30;70.80;100290.44;5027423;28;45459;-70
2024/01/06 02:21:53;;;;;;;;;16.00;14.75;;;;;7.29;70.87;100291.31;5035793;28;68643;-71
2024/01/06 02:24:19;;;;;;;;;14.00;9.00;;;;;7.27;70.78;100292.25;5025239;28;45500;-70
2024/01/06 02:26:45;;;;;;;;;14.75;12.25;;;;;7.24;71.08;100298.34;5014079;28;45493;-71
2024/01/06 02:29:10;;;;;;;;;17.75;11.50;;;;;7.26;71.19;100304.41;5035795;28;68262;-70
2024/01/06 02:31:35;;;;;;;;;12.25;9.50;;;;;7.31;71.06;100306.91;5036329;28;59036;-70
2024/01/06 02:34:01;;;;;;;;;15.00;11.25;;;;;7.31;71.21;100299.97;5019185;28;72791;-70
2024/01/06 02:36:26;;;;;;;;;14.25;11.75;;;;;7.34;71.08;100312.06;5018607;28;68163;-70
2024/01/06 02:38:51;;;;;;;;;17.50;15.00;;;;;7.37;71.00;100298.97;5019167;28;45555;-70
2024/01/06 02:41:17;;;;;;;;;17.50;14.25;;;;;7.41;71.15;100311.88;5014027;28;75630;-70
2024/01/06 02:43:42;;;;;;;;;16.50;13.00;;;;;7.45;71.07;100314.44;5031071;28;65168;-71
2024/01/06 02:46:07;;;;;;;;;14.50;11.00;;;;;7.50;71.08;100321.25;5018647;28;45459;-72
2024/01/06 02:48:32;;;;;;;;;20.50;11.75;;;;;7.56;70.99;100312.44;5018289;28;55820;-70
2024/01/06 02:50:58;;;;;;;;;13.00;11.25;;;;;7.59;70.81;100313.25;5006273;28;74024;-70
2024/01/06 02:53:23;;;;;;;;;16.75;14.00;;;;;7.68;70.85;100321.75;5011356;28;46153;-71
2024/01/06 02:55:48;;;;;;;;;13.00;13.00;;;;;7.68;70.70;100319.16;5006426;28;69320;-70
2024/01/06 02:58:14;;;;;;;;;13.00;11.75;;;;;7.68;70.73;100325.19;5009494;28;70786;-71
2024/01/06 03:00:39;;;;;;;;;13.75;9.50;;;;;7.66;70.42;100327.00;5034274;28;55371;-70
2024/01/06 03:03:04;;;;;;;;;18.00;11.50;;;;;7.65;70.46;100334.84;5014165;28;71917;-70
2024/01/06 03:05:30;;;;;;;;;11.75;11.25;;;;;7.64;70.31;100330.53;5016162;28;45613;-71
2024/01/06 03:07:55;;;;;;;;;17.50;11.50;;;;;7.60;70.64;100334.94;5017254;28;74643;-71
2024/01/06 03:10:20;;;;;;;;;15.25;11.25;;;;;7.57;70.35;100332.41;4996647;28;74543;-71
2024/01/06 03:12:46;;;;;;;;;13.75;11.25;;;;;7.56;70.62;100338.47;5028366;28;58016;-71
2024/01/06 03:15:11;;;;;;;;;16.75;13.00;;;;;7.51;70.52;100336.00;5014340;28;61976;-71
2024/01/06 03:17:36;;;;;;;;;14.50;11.25;;;;;7.52;70.63;100340.28;5007312;28;45592;-71
2024/01/06 03:20:03;;;;;;;;;19.00;11.25;;;;;7.54;70.71;100340.28;4995460;28;47193;-71
2024/01/06 03:22:29;;;;;;;;;17.00;12.75;;;;;7.51;70.66;100335.16;5016247;28;45906;-71
2024/01/06 03:24:55;;;;;;;;;15.75;13.75;;;;;7.54;70.85;100340.28;5015524;28;46084;-70
2024/01/06 03:27:20;;;;;;;;;18.75;14.00;;;;;7.54;70.70;100333.34;5027526;28;45567;-71
2024/01/06 03:29:46;;;;;;;;;18.00;12.50;;;;;7.58;70.63;100349.75;5017284;28;48318;-72
2024/01/06 03:32:12;;;;;;;;;12.50;11.00;;;;;7.57;70.81;100348.88;4999163;28;45590;-71
2024/01/06 03:34:37;;;;;;;;;14.25;12.25;;;;;7.62;70.73;100350.53;5015634;28;45464;-71
2024/01/06 03:37:02;;;;;;;;;18.75;11.50;;;;;7.62;70.49;100347.94;5015579;28;73144;-71
2024/01/06 03:39:27;;;;;;;;;3.25;2.75;;;;;7.69;70.62;100352.13;4999579;28;51797;-71
2024/01/06 03:41:53;;;;;;;;;16.00;13.25;;;;;7.69;70.36;100358.19;5028469;28;66972;-71
2024/01/06 03:44:19;;;;;;;;;21.25;11.75;;;;;7.69;70.36;100363.41;5033580;28;45415;-71
2024/01/06 03:46:44;;;;;;;;;16.67;9.00;;;;;7.67;70.56;100361.72;5015799;28;45567;-71
2024/01/06 03:49:09;;;;;;;;;21.25;13.00;;;;;7.66;70.32;100367.81;5025444;28;71533;-71
2024/01/06 03:51:35;;;;;;;;;9.25;5.00;;;;;7.65;70.36;100361.75;5027441;28;74304;-71
2024/01/06 03:54:00;;;;;;;;;15.00;13.25;;;;;7.65;70.59;100353.06;5014249;28;47316;-71
2024/01/06 03:56:25;;;;;;;;;12.25;12.25;;;;;7.66;70.47;100358.25;5030876;28;45528;-71
2024/01/06 03:58:51;;;;;;;;;15.50;14.25;;;;;7.64;70.27;100361.78;5030417;28;46293;-71
2024/01/06 04:01:16;;;;;;;;;13.00;10.50;;;;;7.61;70.24;100365.28;5024769;28;56331;-71
2024/01/06 04:03:41;;;;;;;;;15.25;13.75;;;;;7.59;70.39;100370.53;5038184;28;58168;-70
2024/01/06 04:06:07;;;;;;;;;16.50;14.50;;;;;7.58;70.31;100373.19;5033232;28;60168;-71
2024/01/06 04:08:32;;;;;;;;;10.25;9.00;;;;;7.56;70.44;100369.72;5010691;28;75519;-71
2024/01/06 04:10:57;;;;;;;;;13.75;8.25;;;;;7.50;70.43;100368.13;5031008;28;71303;-71
2024/01/06 04:13:24;;;;;;;;;15.00;10.00;;;;;7.48;70.48;100375.09;5027881;28;45495;-71
2024/01/06 04:15:50;;;;;;;;;18.50;12.75;;;;;7.49;71.04;100370.75;5014679;28;45314;-72
2024/01/06 04:18:15;;;;;;;;;18.75;15.25;;;;;7.52;70.90;100368.09;5025661;28;45416;-72
2024/01/06 04:20:41;;;;;;;;;33.75;26.75;;;;;7.53;70.59;100375.88;5035574;28;67585;-71
2024/01/06 04:23:06;;;;;;;;;33.00;26.50;;;;;7.53;70.62;100383.69;5021572;28;45579;-72
2024/01/06 04:25:31;;;;;;;;;40.00;29.67;;;;;7.52;70.52;100386.31;5018781;28;75198;-71
2024/01/06 04:27:57;;;;;;;;;32.33;23.33;;;;;7.49;70.51;100392.47;5029182;28;74465;-71
2024/01/06 04:30:22;;;;;;;;;55.00;39.00;;;;;7.47;70.62;100391.63;5036052;28;71705;-71
2024/01/06 04:32:50;;;;;;;;;56.50;41.25;;;;;7.46;70.58;100387.31;5034091;28;47182;-71
2024/01/06 04:35:15;;;;;;;;;52.25;39.25;;;;;7.43;70.95;100389.09;5013863;28;45607;-71
2024/01/06 04:37:40;;;;;;;;;43.00;33.75;;;;;7.45;70.69;100390.78;5030032;28;68571;-71
2024/01/06 04:40:07;;;;;;;;;53.25;38.25;;;;;7.47;70.92;100395.97;5015407;28;64080;-70
2024/01/06 04:42:33;;;;;;;;;48.75;36.50;;;;;7.49;71.00;100389.84;5018183;28;45461;-71
2024/01/06 04:44:58;;;;;;;;;30.25;27.25;;;;;7.51;70.77;100385.47;5030495;28;45393;-70
2024/01/06 04:47:24;;;;;;;;;36.00;27.00;;;;;7.53;70.87;100390.66;5014063;28;45649;-71
2024/01/06 04:49:50;;;;;;;;;29.00;25.00;;;;;7.57;70.85;100393.13;5036958;28;45396;-71
2024/01/06 04:52:15;;;;;;;;;28.75;23.25;;;;;7.59;70.61;100399.16;5039192;28;45435;-71
2024/01/06 04:54:40;;;;;;;;;24.00;19.75;;;;;7.58;70.77;100402.69;5040004;28;73011;-71
2024/01/06 04:57:06;;;;;;;;;27.50;18.25;;;;;7.58;70.64;100405.28;5038529;28;45600;-70
2024/01/06 04:59:31;;;;;;;;;23.00;20.25;;;;;7.55;70.66;100400.13;5033061;28;45263;-69
2024/01/06 05:01:57;;;;;;;;;26.50;20.25;;;;;7.53;70.73;100406.28;5035317;28;55509;-70
2024/01/06 05:04:23;;;;;;;;;28.00;21.00;;;;;7.53;70.84;100408.88;5018577;28;45920;-71
2024/01/06 05:06:49;;;;;;;;;17.00;17.00;;;;;7.54;70.97;100408.84;5016520;28;63379;-71
2024/01/06 05:09:14;;;;;;;;;25.00;17.00;;;;;7.54;70.81;100418.38;5036257;28;45843;-69
2024/01/06 05:11:40;;;;;;;;;21.75;15.25;;;;;7.55;70.89;100414.91;5011274;28;57521;-70
2024/01/06 05:14:05;;;;;;;;;20.75;17.25;;;;;7.57;71.05;100419.19;5034841;28;45526;-70
2024/01/06 05:16:31;;;;;;;;;23.25;16.00;;;;;7.59;70.91;100417.41;5007808;28;74411;-70
2024/01/06 05:18:56;;;;;;;;;22.25;18.00;;;;;7.63;70.92;100419.94;5022933;28;71431;-70
2024/01/06 05:21:21;;;;;;;;;26.50;18.75;;;;;7.65;70.94;100426.88;5036008;28;67567;-71
2024/01/06 05:23:46;;;;;;;;;15.00;14.00;;;;;7.68;70.85;100425.94;5035961;28;54541;-71
2024/01/06 05:26:13;;;;;;;;;17.00;15.25;;;;;7.70;70.82;100421.53;5035004;28;47383;-71
2024/01/06 05:28:39;;;;;;;;;22.25;17.50;;;;;7.69;70.77;100425.91;5026511;28;45937;-71
2024/01/06 05:31:04;;;;;;;;;18.50;17.25;;;;;7.65;70.66;100425.97;5038181;28;45258;-71
2024/01/06 05:33:30;;;;;;;;;16.25;16.25;;;;;7.57;70.64;100431.34;5037875;28;45570;-70
2024/01/06 05:35:55;;;;;;;;;22.25;16.50;;;;;7.51;70.89;100424.53;5023208;28;46094;-70
2024/01/06 05:38:20;;;;;;;;;19.00;16.00;;;;;7.47;70.91;100430.69;5013916;28;72004;-70
2024/01/06 05:40:46;;;;;;;;;22.25;16.00;;;;;7.41;70.94;100423.81;5030084;28;62083;-70
2024/01/06 05:43:11;;;;;;;;;15.00;14.75;;;;;7.38;71.07;100429.13;5016296;28;75706;-70
2024/01/06 05:45:37;;;;;;;;;17.75;15.00;;;;;7.34;71.07;100427.44;5023411;28;45476;-70
2024/01/06 05:48:03;;;;;;;;;23.00;12.25;;;;;7.31;71.35;100430.13;5020282;28;45321;-71
2024/01/06 05:50:30;;;;;;;;;18.00;11.75;;;;;7.31;71.52;100426.63;5032779;28;45260;-70
2024/01/06 05:52:55;;;;;;;;;13.00;12.25;;;;;7.28;71.30;100432.78;5020513;28;45734;-71
2024/01/06 05:55:21;;;;;;;;;21.25;17.00;;;;;7.22;71.52;100433.75;5019268;28;65023;-71
2024/01/06 05:57:46;;;;;;;;;16.00;11.50;;;;;7.19;71.21;100435.53;5022603;28;45387;-72
2024/01/06 06:00:13;;;;;;;;;18.25;14.25;;;;;7.18;71.61;100445.06;5034631;28;45233;-71
2024/01/06 06:02:39;;;;;;;;;17.50;14.25;;;;;7.14;71.36;100446.03;5037310;28;45814;-71
2024/01/06 06:05:05;;;;;;;;;14.75;12.00;;;;;7.14;71.46;100451.22;5017546;28;46165;-71
2024/01/06 06:07:30;;;;;;;;;16.50;10.25;;;;;7.11;71.39;100459.06;5018510;28;47540;-71
2024/01/06 06:09:55;;;;;;;;;14.75;12.25;;;;;7.07;71.42;100459.19;5023086;28;45271;-71
2024/01/06 06:12:20;;;;;;;;;18.75;11.25;;;;;7.05;71.44;100464.41;5040669;28;45510;-70
2024/01/06 06:14:46;;;;;;;;;19.50;12.50;;;;;7.02;71.64;100473.09;5024093;28;68291;-71
2024/01/06 06:17:11;;;;;;;;;14.75;10.50;;;;;7.01;71.45;100473.13;5033063;28;62268;-71
2024/01/06 06:19:36;;;;;;;;;15.50;12.75;;;;;7.01;71.59;100481.81;5005832;28;68186;-70
2024/01/06 06:22:02;;;;;;;;;11.75;11.50;;;;;7.01;71.63;100481.81;5021444;28;72037;-70
2024/01/06 06:24:27;;;;;;;;;15.25;11.75;;;;;7.02;71.35;100491.31;5025369;28;45465;-70
2024/01/06 06:26:52;;;;;;;;;13.50;10.25;;;;;7.05;71.62;100495.63;5022355;28;69309;-71
2024/01/06 06:29:18;;;;;;;;;16.00;13.75;;;;;7.10;71.04;100501.63;5005953;28;54677;-71
2024/01/06 06:31:44;;;;;;;;;17.50;10.00;;;;;7.12;70.95;100507.66;5036991;28;45332;-72
2024/01/06 06:34:10;;;;;;;;;16.00;12.00;;;;;7.12;71.13;100510.25;5033290;28;45428;-71
2024/01/06 06:36:35;;;;;;;;;14.75;11.50;;;;;7.16;71.18;100511.91;5031660;28;45469;-71
2024/01/06 06:39:01;;;;;;;;;7.50;5.00;;;;;7.18;71.04;100515.34;5037664;28;45468;-72
2024/01/06 06:41:26;;;;;;;;;14.00;12.00;;;;;7.21;70.94;100517.91;5001340;28;45693;-72
2024/01/06 06:43:52;;;;;;;;;8.75;8.75;;;;;7.22;70.72;100510.94;5038920;28;74692;-72
2024/01/06 06:46:17;;;;;;;;;9.25;9.25;;;;;7.25;70.56;100515.25;5022033;28;65373;-72
2024/01/06 06:48:42;;;;;;;;;12.00;8.50;;;;;7.26;70.55;100519.56;5036520;28;45507;-72
2024/01/06 06:51:08;;;;;;;;;7.25;5.25;;;;;7.28;70.58;100529.06;5000580;28;71300;-72
2024/01/06 06:53:33;;;;;;;;;13.75;8.75;;;;;7.30;70.63;100519.50;5018691;28;73367;-73
2024/01/06 06:55:58;;;;;;;;;16.00;9.75;;;;;7.35;70.42;100530.69;5017160;28;45428;-72
2024/01/06 06:58:24;;;;;;;;;13.50;9.50;;;;;7.37;70.52;100533.28;5017507;28;51921;-72
2024/01/06 07:00:49;;;;;;;;;15.50;9.00;;;;;7.37;70.19;100528.06;5033538;28;53165;-72
2024/01/06 07:03:14;;;;;;;;;12.00;9.75;;;;;7.37;70.26;100543.69;5018692;28;45434;-73
2024/01/06 07:05:40;;;;;;;;;12.50;10.50;;;;;7.36;70.24;100545.41;5037282;28;45354;-73
2024/01/06 07:08:05;;;;;;;;;11.00;10.00;;;;;7.34;70.26;100544.56;5018286;28;55984;-73
2024/01/06 07:10:31;;;;;;;;;14.50;12.00;;;;;7.37;70.13;100544.53;5012156;28;45535;-72
2024/01/06 07:12:56;;;;;;;;;18.50;10.25;;;;;7.41;70.46;100553.16;5020690;28;48013;-73
2024/01/06 07:15:21;;;;;;;;;11.00;10.00;;;;;7.43;70.31;100551.38;5017762;28;60322;-74
2024/01/06 07:17:47;;;;;;;;;12.75;10.50;;;;;7.46;70.12;100558.28;5027354;28;56481;-73
2024/01/06 07:20:12;;;;;;;;;14.25;9.75;;;;;7.52;70.10;100565.97;5017925;28;45563;-73
2024/01/06 07:22:37;;;;;;;;;16.25;10.25;;;;;7.50;70.06;100563.41;5019718;28;53303;-72
2024/01/06 07:25:03;;;;;;;;;15.75;10.50;;;;;7.52;70.19;100579.00;5011140;28;46140;-72
2024/01/06 07:27:29;;;;;;;;;16.75;11.00;;;;;7.50;70.06;100572.97;5020717;28;45468;-72
2024/01/06 07:29:55;;;;;;;;;15.75;13.00;;;;;7.52;70.04;100581.59;4999613;28;45625;-71
2024/01/06 07:32:22;;;;;;;;;14.25;12.50;;;;;7.51;69.97;100585.13;5013760;28;47624;-73
2024/01/06 07:34:47;;;;;;;;;16.00;13.75;;;;;7.49;69.99;100585.13;5023898;28;45404;-72
2024/01/06 07:37:12;;;;;;;;;9.75;8.00;;;;;7.46;70.15;100586.94;5005508;28;45427;-72
2024/01/06 07:39:38;;;;;;;;;16.75;11.75;;;;;7.48;70.14;100595.56;5013149;28;75394;-71
2024/01/06 07:42:04;;;;;;;;;13.25;13.25;;;;;7.47;70.11;100604.25;5033642;28;68534;-72
2024/01/06 07:44:29;;;;;;;;;11.00;9.75;;;;;7.49;70.16;100594.66;5039137;28;45420;-72
2024/01/06 07:46:54;;;;;;;;;14.50;12.75;;;;;7.50;69.84;100605.06;5020061;28;61264;-72
2024/01/06 07:49:20;;;;;;;;;13.00;10.25;;;;;7.50;69.83;100610.25;5018226;28;69984;-72
2024/01/06 07:51:45;;;;;;;;;10.00;10.00;;;;;7.51;70.13;100603.34;5035434;28;45443;-72
2024/01/06 07:54:11;;;;;;;;;17.00;12.75;;;;;7.53;70.07;100610.22;5036415;28;45546;-73
2024/01/06 07:56:37;;;;;;;;;18.25;12.25;;;;;7.54;69.79;100606.75;5021791;28;45432;-72
2024/01/06 07:59:02;;;;;;;;;14.25;11.50;;;;;7.54;69.72;100605.88;5018318;28;45725;-72
2024/01/06 08:01:27;;;;;;;;;19.25;15.00;;;;;7.54;69.75;100604.16;5034984;28;46967;-72
2024/01/06 08:03:53;;;;;;;;;14.75;10.00;;;;;7.56;69.63;100610.19;5027182;28;58020;-70
2024/01/06 08:06:18;;;;;;;;;18.50;12.50;;;;;7.60;69.77;100614.44;5037072;28;55124;-70
2024/01/06 08:08:45;;;;;;;;;22.00;13.00;;;;;7.60;69.65;100614.44;5020581;28;66241;-73
2024/01/06 08:11:11;;;;;;;;;18.50;11.25;;;;;7.62;69.81;100622.22;5016325;28;46072;-72
2024/01/06 08:13:36;;;;;;;;;15.00;10.50;;;;;7.64;69.66;100624.81;5038620;28;45443;-73
2024/01/06 08:16:01;;;;;;;;;22.50;15.25;;;;;7.69;69.69;100634.28;5032577;28;65064;-73
2024/01/06 08:18:27;;;;;;;;;16.25;11.00;;;;;7.75;69.76;100636.75;5014343;28;45513;-66
2024/01/06 08:20:53;;;;;;;;;13.00;9.50;;;;;7.77;69.59;100640.22;5015718;28;48678;-68
2024/01/06 08:23:20;;;;;;;;;13.25;10.50;;;;;7.75;69.26;100641.97;4998728;28;65960;-70
2024/01/06 08:25:45;;;;;;;;;14.75;10.25;;;;;7.71;68.95;100650.72;5027332;28;45692;-69
2024/01/06 08:28:11;;;;;;;;;15.25;11.50;;;;;7.72;69.07;100648.97;5033142;28;45528;-76
2024/01/06 08:30:36;;;;;;;;;10.75;9.75;;;;;7.72;69.00;100655.06;5021173;28;45567;-76
2024/01/06 08:33:02;;;;;;;;;16.25;11.50;;;;;7.72;68.70;100647.25;5013635;28;72504;-72
2024/01/06 08:35:27;;;;;;;;;14.50;11.00;;;;;7.74;68.64;100650.69;5015307;28;45595;-70
2024/01/06 08:37:52;;;;;;;;;16.75;11.75;;;;;7.76;68.36;100659.31;5009514;28;60952;-70
2024/01/06 08:40:18;;;;;;;;;18.75;15.25;;;;;7.79;68.30;100654.06;5028800;28;46081;-68
2024/01/06 08:42:44;;;;;;;;;11.00;11.00;;;;;7.83;68.17;100656.63;5028874;28;56530;-68
2024/01/06 08:45:09;;;;;;;;;18.50;13.75;;;;;7.86;67.89;100661.78;5019546;28;45468;-70
2024/01/06 08:47:34;;;;;;;;;20.25;14.75;;;;;7.83;67.55;100665.31;5036883;28;68696;-70
2024/01/06 08:50:00;;;;;;;;;22.50;17.00;;;;;7.85;67.75;100662.69;5011195;28;75244;-68
2024/01/06 08:52:25;;;;;;;;;15.75;14.00;;;;;7.87;68.10;100672.16;5036665;28;63059;-68
2024/01/06 08:54:50;;;;;;;;;18.50;14.75;;;;;7.90;67.48;100672.13;5034386;28;68343;-65
2024/01/06 08:57:16;;;;;;;;;17.50;11.25;;;;;7.91;67.44;100678.19;5024642;28;73160;-66
2024/01/06 08:59:41;;;;;;;;;15.00;12.00;;;;;7.93;67.09;100682.50;5024905;28;45948;-67
2024/01/06 09:02:07;;;;;;;;;15.75;13.25;;;;;7.95;67.10;100677.25;5028303;28;45511;-68
2024/01/06 09:04:32;;;;;;;;;14.00;10.25;;;;;7.96;67.36;100679.81;5010317;28;45263;-66
2024/01/06 09:06:58;;;;;;;;;13.75;10.00;;;;;7.98;67.35;100679.81;5031258;28;45598;-65
2024/01/06 09:09:23;;;;;;;;;18.00;11.00;;;;;7.98;66.97;100683.28;5027164;28;71633;-68
2024/01/06 09:11:49;;;;;;;;;16.75;9.00;;;;;7.97;66.90;100689.38;5020129;28;45582;-69
2024/01/06 09:14:14;;;;;;;;;10.50;8.00;;;;;7.96;66.78;100692.84;5031624;28;63520;-69
2024/01/06 09:16:40;;;;;;;;;11.00;10.00;;;;;7.96;66.92;100690.25;5028962;28;70035;-69
2024/01/06 09:19:05;;;;;;;;;29.50;20.00;;;;;7.99;66.92;100692.81;5018058;28;45943;-66
2024/01/06 09:21:30;;;;;;;;;12.50;8.75;;;;;7.99;66.79;100697.19;5019589;28;56779;-69
2024/01/06 09:23:56;;;;;;;;;15.25;9.50;;;;;8.03;66.86;100692.75;5030151;28;67289;-69
2024/01/06 09:26:21;;;;;;;;;11.00;8.25;;;;;8.04;66.54;100702.28;4991969;28;75249;-69
2024/01/06 09:28:47;;;;;;;;;7.50;5.00;;;;;8.10;66.39;100710.03;5011681;28;75907;-69
2024/01/06 09:31:13;;;;;;;;;7.75;6.75;;;;;8.14;66.18;100716.88;5017091;28;45483;-69
2024/01/06 09:33:38;;;;;;;;;9.00;7.00;;;;;8.18;66.15;100709.00;5029498;28;45298;-67
2024/01/06 09:36:04;;;;;;;;;9.50;7.00;;;;;8.23;66.00;100706.28;5029158;28;58225;-68
2024/01/06 09:38:29;;;;;;;;;9.00;4.75;;;;;8.32;65.85;100713.97;5037026;28;45745;-69
2024/01/06 09:40:55;;;;;;;;;5.25;5.00;;;;;8.36;65.33;100717.38;5019743;28;73021;-69
2024/01/06 09:43:20;;;;;;;;;10.75;5.00;;;;;8.39;64.80;100730.34;5038681;28;45234;-69
2024/01/06 09:45:53;;;;;;;;;4.25;4.25;;;;;8.38;64.22;100733.84;5031906;28;67460;-71
2024/01/06 09:48:20;;;;;;;;;3.00;3.00;;;;;8.36;63.81;100722.59;5026377;28;45424;-66
2024/01/06 09:50:46;;;;;;;;;5.00;3.50;;;;;8.33;63.96;100723.50;5028926;28;73753;-65
2024/01/06 09:53:11;;;;;;;;;3.25;2.75;;;;;8.37;63.78;100734.72;5027064;28;65644;-65
2024/01/06 09:55:38;;;;;;;;;6.25;4.25;;;;;8.42;63.81;100732.06;5012006;28;45317;-65
2024/01/06 09:58:05;;;;;;;;;6.00;3.75;;;;;8.47;63.62;100730.25;5015781;28;45424;-65
2024/01/06 10:00:30;;;;;;;;;5.75;4.75;;;;;8.51;63.66;100739.72;5038945;28;45384;-65
2024/01/06 10:02:55;;;;;;;;;9.00;4.00;;;;;8.52;63.05;100733.66;5028403;28;60640;-65
2024/01/06 10:05:21;;;;;;;;;4.50;3.75;;;;;8.62;62.89;100745.59;5023412;28;45293;-65
2024/01/06 10:07:47;;;;;;;;;6.25;3.50;;;;;8.70;62.92;100735.91;5021367;28;45456;-66
2024/01/06 10:10:13;;;;;;;;;4.00;3.25;;;;;8.73;62.63;100738.44;5035774;28;45723;-66
2024/01/06 10:12:42;;;;;;;;;5.00;3.75;;;;;8.78;62.19;100746.16;5016101;28;45669;-65
2024/01/06 10:15:09;;;;;;;;;3.00;3.00;;;;;8.82;62.16;100741.75;5015673;28;45383;-66
2024/01/06 10:17:38;;;;;;;;;7.25;4.75;;;;;8.83;62.36;100748.69;5036922;28;45878;-66
2024/01/06 10:20:12;;;;;;;;;9.75;3.75;;;;;8.85;62.18;100745.19;5027340;28;45808;-66
2024/01/06 10:22:38;;;;;;;;;3.50;2.75;;;;;8.81;62.13;100746.13;5037539;28;45339;-67
2024/01/06 10:25:08;;;;;;;;;5.00;5.00;;;;;8.79;61.96;100757.50;5039997;28;45518;-65
2024/01/06 10:27:35;;;;;;;;;10.25;9.00;;;;;8.82;61.92;100752.19;5020672;28;46434;-66
2024/01/06 10:30:01;;;;;;;;;4.75;4.25;;;;;8.87;62.24;100746.00;5023132;28;45358;-66
2024/01/06 10:32:28;;;;;;;;;8.00;6.25;;;;;8.90;62.21;100747.69;5032885;28;45352;-66
2024/01/06 10:34:55;;;;;;;;;8.00;3.75;;;;;8.86;61.62;100752.09;5034022;28;45400;-66
2024/01/06 10:37:20;;;;;;;;;12.50;8.25;;;;;8.84;61.19;100745.22;5025604;28;45349;-65
2024/01/06 10:39:45;;;;;;;;;6.75;5.00;;;;;8.78;61.60;100746.16;5033674;28;73051;-66
2024/01/06 10:42:12;;;;;;;;;6.25;3.25;;;;;8.83;61.57;100749.56;5037778;28;58011;-66
2024/01/06 10:44:39;;;;;;;;;3.25;2.75;;;;;8.84;60.91;100745.22;5014401;28;45496;-67
2024/01/06 10:47:06;;;;;;;;;2.00;2.00;;;;;8.85;61.28;100739.09;5014199;28;46441;-67
2024/01/06 10:49:32;;;;;;;;;6.00;3.00;;;;;8.91;61.30;100747.66;5014165;28;45502;-64
2024/01/06 10:51:58;;;;;;;;;4.00;3.75;;;;;8.96;61.22;100747.59;5020687;28;64631;-65
2024/01/06 10:54:24;;;;;;;;;5.75;3.25;;;;;8.99;61.40;100755.31;5033482;28;45495;-65
2024/01/06 10:56:51;;;;;;;;;13.75;10.25;;;;;9.01;60.81;100750.06;5005280;28;63807;-64
2024/01/06 10:59:18;;;;;;;;;5.75;4.00;;;;;8.97;60.68;100746.66;5032335;28;57996;-67
2024/01/06 11:01:44;;;;;;;;;8.50;7.00;;;;;8.94;60.76;100754.56;5028998;28;45321;-66
2024/01/06 11:04:10;;;;;;;;;7.25;4.50;;;;;8.92;60.89;100759.84;5032276;28;45415;-65
2024/01/06 11:06:36;;;;;;;;;5.50;3.50;;;;;8.94;60.82;100759.78;5020163;28;46214;-66
2024/01/06 11:09:12;;;;;;;;;10.50;6.00;;;;;8.95;60.52;100747.59;5013347;28;66380;-67
2024/01/06 11:11:39;;;;;;;;;5.50;4.50;;;;;9.01;60.77;100744.84;5022361;28;45372;-66
2024/01/06 11:14:32;;;;;;;;;3.25;3.00;;;;;9.05;60.41;100738.72;5031079;28;45424;-67